createdAt,value
2023-05-10T00:01:53.582Z,0.75
2023-05-10T00:04:20.841Z,0.60
2023-05-10T00:06:47.991Z,0.50
2023-05-10T00:09:15.492Z,0.47
2023-05-10T00:11:43.019Z,0.65
2023-05-10T00:14:10.219Z,0.50
2023-05-10T00:16:37.469Z,0.40
2023-05-10T00:19:04.716Z,0.63
2023-05-10T00:21:33.072Z,0.60
2023-05-10T00:24:00.394Z,0.80
2023-05-10T00:26:27.712Z,0.80
2023-05-10T00:28:54.880Z,1.00
2023-05-10T00:31:22.429Z,1.00
2023-05-10T00:33:49.591Z,1.40
2023-05-10T00:36:16.757Z,1.50
2023-05-10T00:38:43.990Z,1.38
2023-05-10T00:41:11.166Z,1.15
2023-05-10T00:43:38.304Z,0.90
2023-05-10T00:46:05.967Z,0.93
2023-05-10T00:48:33.363Z,0.70
2023-05-10T00:51:00.659Z,0.85
2023-05-10T00:53:28.280Z,0.70
2023-05-10T00:55:55.444Z,0.60
2023-05-10T00:58:24.324Z,1.45
2023-05-10T01:00:52.337Z,0.40
2023-05-10T01:03:19.626Z,0.50
2023-05-10T01:05:46.855Z,0.50
2023-05-10T01:08:14.041Z,0.60
2023-05-10T01:10:41.243Z,0.80
2023-05-10T01:13:08.475Z,0.73
2023-05-10T01:15:35.707Z,0.70
2023-05-10T01:18:04.178Z,0.93
2023-05-10T01:20:35.803Z,0.95
2023-05-10T01:23:03.020Z,0.95
2023-05-10T01:25:45.536Z,1.15
2023-05-10T01:28:31.020Z,1.20
2023-05-10T01:30:58.257Z,1.30
2023-05-10T01:33:37.899Z,1.10
2023-05-10T01:36:07.971Z,1.10
2023-05-10T01:38:43.728Z,1.42
2023-05-10T01:41:16.521Z,1.58
2023-05-10T01:44:02.468Z,1.67
2023-05-10T01:46:33.229Z,1.42
2023-05-10T01:49:02.140Z,1.88
2023-05-10T01:51:31.861Z,1.80
2023-05-10T01:54:05.688Z,1.77
2023-05-10T01:56:34.910Z,2.13
2023-05-10T01:59:03.606Z,2.28
2023-05-10T02:01:31.225Z,2.65
2023-05-10T02:03:59.046Z,2.67
2023-05-10T02:06:27.336Z,2.78
2023-05-10T02:08:55.329Z,2.55
2023-05-10T02:11:23.250Z,2.40
2023-05-10T02:13:52.183Z,2.50
2023-05-10T02:16:20.392Z,2.35
2023-05-10T02:18:48.646Z,2.10
2023-05-10T02:21:17.185Z,2.10
2023-05-10T02:23:45.042Z,2.30
2023-05-10T02:26:13.058Z,2.10
2023-05-10T02:28:42.105Z,2.55
2023-05-10T02:31:11.528Z,2.97
2023-05-10T02:33:40.798Z,3.08
2023-05-10T02:36:09.161Z,3.08
2023-05-10T02:38:36.863Z,3.15
2023-05-10T02:41:07.324Z,3.00
2023-05-10T02:43:35.130Z,2.83
2023-05-10T02:46:02.466Z,2.88
2023-05-10T02:48:29.916Z,3.20
2023-05-10T02:50:57.969Z,3.47
2023-05-10T02:53:28.309Z,3.42
2023-05-10T02:55:57.630Z,2.90
2023-05-10T02:58:24.865Z,3.42
2023-05-10T03:00:52.008Z,3.50
2023-05-10T03:03:19.274Z,3.20
2023-05-10T03:05:46.377Z,3.25
2023-05-10T03:08:13.767Z,3.50
2023-05-10T03:10:48.079Z,3.67
2023-05-10T03:13:24.994Z,3.20
2023-05-10T03:16:08.809Z,3.20
2023-05-10T03:18:41.095Z,3.70
2023-05-10T03:21:11.639Z,3.67
2023-05-10T03:24:12.974Z,3.65
2023-05-10T03:26:40.501Z,3.95
2023-05-10T03:29:08.586Z,4.25
2023-05-10T03:31:35.930Z,4.20
2023-05-10T03:34:03.460Z,4.18
2023-05-10T03:36:30.646Z,4.60
2023-05-10T03:38:57.862Z,4.50
2023-05-10T03:41:26.359Z,4.90
2023-05-10T03:43:53.673Z,5.15
2023-05-10T03:46:20.905Z,5.55
2023-05-10T03:48:48.102Z,5.25
2023-05-10T03:51:15.317Z,5.55
2023-05-10T03:53:42.455Z,5.00
2023-05-10T03:56:09.612Z,5.53
2023-05-10T03:58:36.732Z,5.72
2023-05-10T04:01:03.874Z,5.70
2023-05-10T04:03:31.356Z,5.57
2023-05-10T04:06:02.646Z,5.60
2023-05-10T04:08:30.143Z,5.85
2023-05-10T04:11:07.088Z,5.55
2023-05-10T04:13:34.319Z,5.60
2023-05-10T04:16:01.606Z,5.88
2023-05-10T04:18:28.869Z,4.63
2023-05-10T04:20:56.131Z,6.07
2023-05-10T04:23:23.260Z,5.38
2023-05-10T04:25:50.472Z,5.90
2023-05-10T04:28:17.652Z,8.25
2023-05-10T04:30:44.873Z,6.60
2023-05-10T04:33:12.013Z,5.70
2023-05-10T04:35:40.969Z,6.05
2023-05-10T04:38:08.224Z,5.25
2023-05-10T04:40:35.595Z,5.80
2023-05-10T04:43:02.780Z,5.97
2023-05-10T04:45:30.002Z,5.60
2023-05-10T04:47:57.228Z,5.85
2023-05-10T04:50:24.493Z,4.93
2023-05-10T04:52:53.214Z,4.60
2023-05-10T04:55:20.538Z,4.80
2023-05-10T04:57:47.667Z,4.53
2023-05-10T05:00:15.410Z,4.90
2023-05-10T05:02:46.633Z,4.93
2023-05-10T05:05:14.300Z,4.38
2023-05-10T05:07:41.564Z,4.50
2023-05-10T05:10:09.423Z,4.47
2023-05-10T05:12:37.100Z,5.07
2023-05-10T05:15:04.371Z,4.32
2023-05-10T05:17:34.570Z,4.60
2023-05-10T05:20:01.682Z,5.18
2023-05-10T05:22:29.419Z,4.93
2023-05-10T05:24:57.508Z,5.15
2023-05-10T05:27:25.404Z,5.20
2023-05-10T05:29:53.956Z,5.22
2023-05-10T05:32:21.257Z,5.10
2023-05-10T05:34:48.833Z,4.85
2023-05-10T05:37:19.984Z,4.32
2023-05-10T05:39:47.593Z,3.60
2023-05-10T05:42:15.692Z,3.50
2023-05-10T05:44:42.896Z,3.00
2023-05-10T05:47:10.228Z,3.50
2023-05-10T05:49:37.401Z,3.60
2023-05-10T05:52:05.220Z,4.40
2023-05-10T05:54:32.918Z,4.80
2023-05-10T05:57:01.417Z,4.68
2023-05-10T05:59:29.326Z,4.78
2023-05-10T06:01:56.546Z,3.97
2023-05-10T06:04:23.841Z,4.22
2023-05-10T06:06:51.101Z,7.75
2023-05-10T06:09:18.376Z,6.70
2023-05-10T06:11:45.849Z,4.60
2023-05-10T06:14:13.042Z,4.90
2023-05-10T06:16:40.263Z,5.18
2023-05-10T06:19:07.414Z,4.40
2023-05-10T06:21:34.652Z,4.70
2023-05-10T06:24:01.815Z,5.50
2023-05-10T06:26:29.030Z,5.22
2023-05-10T06:28:56.198Z,5.07
2023-05-10T06:31:23.385Z,5.25
2023-05-10T06:33:50.668Z,5.10
2023-05-10T06:36:17.817Z,5.30
2023-05-10T06:38:45.060Z,5.30
2023-05-10T06:41:12.693Z,5.65
2023-05-10T06:43:42.208Z,5.60
2023-05-10T06:46:09.531Z,5.72
2023-05-10T06:48:36.883Z,5.75
2023-05-10T06:51:04.085Z,5.60
2023-05-10T06:53:31.402Z,5.80
2023-05-10T06:55:58.605Z,5.18
2023-05-10T06:58:25.786Z,5.53
2023-05-10T07:00:53.064Z,4.93
2023-05-10T07:03:20.313Z,5.40
2023-05-10T07:05:47.483Z,4.68
2023-05-10T07:08:14.641Z,5.57
2023-05-10T07:10:41.745Z,5.43
2023-05-10T07:13:09.101Z,4.97
2023-05-10T07:15:36.419Z,4.63
2023-05-10T07:18:05.580Z,4.75
2023-05-10T07:20:32.940Z,4.57
2023-05-10T07:23:00.130Z,4.68
2023-05-10T07:25:27.389Z,4.90
2023-05-10T07:27:54.541Z,5.70
2023-05-10T07:30:21.748Z,4.90
2023-05-10T07:32:48.892Z,4.30
2023-05-10T07:35:16.532Z,4.97
2023-05-10T07:37:43.919Z,4.88
2023-05-10T07:40:11.359Z,3.78
2023-05-10T07:42:39.162Z,3.60
2023-05-10T07:45:06.658Z,3.38
2023-05-10T07:47:33.923Z,3.42
2023-05-10T07:50:01.189Z,3.10
2023-05-10T07:52:28.445Z,3.08
2023-05-10T07:54:57.834Z,3.20
2023-05-10T07:57:25.070Z,2.70
2023-05-10T07:59:52.242Z,2.67
2023-05-10T08:02:19.498Z,2.45
2023-05-10T08:04:46.864Z,2.70
2023-05-10T08:07:14.039Z,2.42
2023-05-10T08:09:41.275Z,2.42
2023-05-10T08:12:08.525Z,2.70
2023-05-10T08:14:37.480Z,2.70
2023-05-10T08:17:05.125Z,2.67
2023-05-10T08:19:32.501Z,2.40
2023-05-10T08:21:59.694Z,2.30
2023-05-10T08:24:26.925Z,2.70
2023-05-10T08:26:54.083Z,2.03
2023-05-10T08:29:21.253Z,2.15
2023-05-10T08:31:48.483Z,1.73
2023-05-10T08:34:16.017Z,2.22
2023-05-10T08:36:43.221Z,1.88
2023-05-10T08:39:22.976Z,2.42
2023-05-10T08:41:55.446Z,2.50
2023-05-10T08:44:22.698Z,2.90
2023-05-10T08:46:52.201Z,2.85
2023-05-10T08:49:19.604Z,2.85
2023-05-10T08:51:50.629Z,1.80
2023-05-10T08:54:17.808Z,1.60
2023-05-10T08:56:45.106Z,1.98
2023-05-10T08:59:14.175Z,1.70
2023-05-10T09:01:42.083Z,1.27
2023-05-10T09:04:09.330Z,1.13
2023-05-10T09:06:36.906Z,1.20
2023-05-10T09:09:04.396Z,1.42
2023-05-10T09:11:32.518Z,1.38
2023-05-10T09:13:59.872Z,1.30
2023-05-10T09:16:27.053Z,1.40
2023-05-10T09:18:54.316Z,1.20
2023-05-10T09:21:21.791Z,1.65
2023-05-10T09:23:51.193Z,1.40
2023-05-10T09:26:18.567Z,1.30
2023-05-10T09:28:56.467Z,1.40
2023-05-10T09:31:24.744Z,1.42
2023-05-10T09:33:52.439Z,0.95
2023-05-10T09:36:19.795Z,1.17
2023-05-10T09:38:50.669Z,1.10
2023-05-10T09:41:18.919Z,0.90
2023-05-10T09:43:46.079Z,0.95
2023-05-10T09:46:13.463Z,0.77
2023-05-10T09:48:43.155Z,0.85
2023-05-10T09:51:10.506Z,0.80
2023-05-10T09:53:38.355Z,0.90
2023-05-10T09:56:05.498Z,0.60
2023-05-10T09:58:32.918Z,0.75
2023-05-10T10:01:00.122Z,1.00
2023-05-10T10:03:29.686Z,0.65
2023-05-10T10:05:57.610Z,0.80
2023-05-10T10:08:24.811Z,0.88
2023-05-10T10:10:52.097Z,0.80
2023-05-10T10:13:19.268Z,0.75
2023-05-10T10:15:47.826Z,1.25
2023-05-10T10:18:16.687Z,0.70
2023-05-10T10:20:44.207Z,0.55
2023-05-10T10:23:11.323Z,0.60
2023-05-10T10:25:39.676Z,0.70
2023-05-10T10:28:14.272Z,0.60
2023-05-10T10:30:43.745Z,0.70
2023-05-10T10:33:29.795Z,0.90
2023-05-10T10:35:59.670Z,1.00
2023-05-10T10:38:27.442Z,0.70
2023-05-10T10:41:12.364Z,0.80
2023-05-10T10:43:39.786Z,0.70
2023-05-10T10:46:18.442Z,0.65
2023-05-10T10:48:50.268Z,0.60
2023-05-10T10:51:17.670Z,0.60
2023-05-10T10:53:45.602Z,0.70
2023-05-10T10:56:14.714Z,1.13
2023-05-10T10:58:41.984Z,1.05
2023-05-10T11:01:12.380Z,0.73
2023-05-10T11:03:39.656Z,1.02
2023-05-10T11:06:06.902Z,0.80
2023-05-10T11:08:37.498Z,0.90
2023-05-10T11:11:10.140Z,0.93
2023-05-10T11:13:44.953Z,1.10
2023-05-10T11:16:12.150Z,0.90
2023-05-10T11:18:39.696Z,0.85
2023-05-10T11:21:07.037Z,0.90
2023-05-10T11:23:49.192Z,0.80
2023-05-10T11:26:16.477Z,0.80
2023-05-10T11:28:44.100Z,0.80
2023-05-10T11:31:11.566Z,0.70
2023-05-10T11:34:05.216Z,0.77
2023-05-10T11:36:36.768Z,0.80
2023-05-10T11:39:04.448Z,0.82
2023-05-10T11:41:32.864Z,0.70
2023-05-10T11:44:00.394Z,0.70
2023-05-10T11:46:28.674Z,0.65
2023-05-10T11:49:02.604Z,0.90
2023-05-10T11:51:29.809Z,0.90
2023-05-10T11:53:58.426Z,1.05
2023-05-10T11:56:27.324Z,0.90
2023-05-10T11:58:56.681Z,0.90
2023-05-10T12:01:24.602Z,0.85
2023-05-10T12:03:52.508Z,0.80
2023-05-10T12:06:23.393Z,0.93
2023-05-10T12:08:54.586Z,0.90
2023-05-10T12:11:22.782Z,0.77
2023-05-10T12:13:50.900Z,1.00
2023-05-10T12:16:21.584Z,0.82
2023-05-10T12:18:55.852Z,0.88
2023-05-10T12:21:23.379Z,0.70
2023-05-10T12:23:52.299Z,0.75
2023-05-10T12:26:19.648Z,0.98
2023-05-10T12:28:46.940Z,0.82
2023-05-10T12:31:14.092Z,0.85
2023-05-10T12:33:45.564Z,0.70
2023-05-10T12:36:13.729Z,0.85
2023-05-10T12:38:44.095Z,1.00
2023-05-10T12:41:13.163Z,1.00
2023-05-10T12:43:41.009Z,0.98
2023-05-10T12:46:08.504Z,0.90
2023-05-10T12:48:36.258Z,1.30
2023-05-10T12:51:03.881Z,1.00
2023-05-10T12:53:31.138Z,0.90
2023-05-10T12:55:58.679Z,1.08
2023-05-10T12:58:34.960Z,1.30
2023-05-10T13:01:03.208Z,1.17
2023-05-10T13:03:30.670Z,1.10
2023-05-10T13:05:58.001Z,1.20
2023-05-10T13:08:25.345Z,1.10
2023-05-10T13:10:52.462Z,1.10
2023-05-10T13:13:19.593Z,1.13
2023-05-10T13:15:46.710Z,1.40
2023-05-10T13:18:13.966Z,1.17
2023-05-10T13:20:41.249Z,1.60
2023-05-10T13:23:08.460Z,1.17
2023-05-10T13:25:35.704Z,1.45
2023-05-10T13:28:03.004Z,1.17
2023-05-10T13:30:30.344Z,1.30
2023-05-10T13:32:57.509Z,1.15
2023-05-10T13:35:24.786Z,0.95
2023-05-10T13:37:51.954Z,1.08
2023-05-10T13:40:19.295Z,1.00
2023-05-10T13:42:46.968Z,1.00
2023-05-10T13:45:14.210Z,1.05
2023-05-10T13:47:42.026Z,0.80
2023-05-10T13:50:09.343Z,0.95
2023-05-10T13:52:36.581Z,1.35
2023-05-10T13:55:03.843Z,1.20
2023-05-10T13:57:31.417Z,0.90
2023-05-10T13:59:58.665Z,1.00
2023-05-10T14:02:26.790Z,1.10
2023-05-10T14:04:53.941Z,0.90
2023-05-10T14:07:21.180Z,0.85
2023-05-10T14:09:48.391Z,1.42
2023-05-10T14:12:15.665Z,0.70
2023-05-10T14:14:42.884Z,0.85
2023-05-10T14:17:12.136Z,0.90
2023-05-10T14:19:40.185Z,0.80
2023-05-10T14:22:07.407Z,1.20
2023-05-10T14:24:34.705Z,0.93
2023-05-10T14:27:02.141Z,1.05
2023-05-10T14:29:29.349Z,0.88
2023-05-10T14:31:56.656Z,0.98
2023-05-10T14:34:23.847Z,0.93
2023-05-10T14:36:51.370Z,0.93
2023-05-10T14:39:19.317Z,0.80
2023-05-10T14:41:46.774Z,1.02
2023-05-10T14:44:14.140Z,1.15
2023-05-10T14:46:41.423Z,1.02
2023-05-10T14:49:08.584Z,1.20
2023-05-10T14:51:37.784Z,1.60
2023-05-10T14:54:05.021Z,1.30
2023-05-10T14:56:32.236Z,1.05
2023-05-10T14:59:00.236Z,0.80
2023-05-10T15:01:27.890Z,0.80
2023-05-10T15:03:55.865Z,1.17
2023-05-10T15:06:26.325Z,0.90
2023-05-10T15:08:53.425Z,1.08
2023-05-10T15:11:21.452Z,0.90
2023-05-10T15:13:48.695Z,1.15
2023-05-10T15:16:16.272Z,1.05
2023-05-10T15:18:43.518Z,0.85
2023-05-10T15:21:11.121Z,0.98
2023-05-10T15:23:38.353Z,1.00
2023-05-10T15:26:05.970Z,0.75
2023-05-10T15:28:34.411Z,0.70
2023-05-10T15:31:01.873Z,1.00
2023-05-10T15:33:29.293Z,0.95
2023-05-10T15:35:56.645Z,0.80
2023-05-10T15:38:23.894Z,1.00
2023-05-10T15:40:51.125Z,0.82
2023-05-10T15:43:18.350Z,0.90
2023-05-10T15:45:45.530Z,1.75
2023-05-10T15:48:12.739Z,1.02
2023-05-10T15:50:41.190Z,1.23
2023-05-10T15:53:08.414Z,0.98
2023-05-10T15:55:35.550Z,1.00
2023-05-10T15:58:02.754Z,1.27
2023-05-10T16:00:30.444Z,0.93
2023-05-10T16:02:57.719Z,1.30
2023-05-10T16:05:24.913Z,1.05
2023-05-10T16:07:52.314Z,0.90
2023-05-10T16:10:19.470Z,1.13
2023-05-10T16:12:47.217Z,1.00
2023-05-10T16:15:14.533Z,1.40
2023-05-10T16:17:41.932Z,1.13
2023-05-10T16:20:09.326Z,1.10
2023-05-10T16:22:36.716Z,1.02
2023-05-10T16:25:04.249Z,1.05
2023-05-10T16:27:33.446Z,1.10
2023-05-10T16:30:00.826Z,1.20
2023-05-10T16:32:28.032Z,1.00
2023-05-10T16:34:55.397Z,1.20
2023-05-10T16:37:22.623Z,1.13
2023-05-10T16:39:49.773Z,0.95
2023-05-10T16:42:17.733Z,1.38
2023-05-10T16:44:44.881Z,1.58
2023-05-10T16:47:12.187Z,1.20
2023-05-10T16:49:39.342Z,1.50
2023-05-10T16:52:06.670Z,1.02
2023-05-10T16:54:33.872Z,1.30
2023-05-10T16:57:02.105Z,1.50
2023-05-10T16:59:29.428Z,1.65
2023-05-10T17:01:56.722Z,1.35
2023-05-10T17:04:24.012Z,1.10
2023-05-10T17:06:51.496Z,1.25
2023-05-10T17:09:20.185Z,1.40
2023-05-10T17:11:47.400Z,1.00
2023-05-10T17:14:14.572Z,0.90
2023-05-10T17:16:42.304Z,0.90
2023-05-10T17:19:09.786Z,0.80
2023-05-10T17:21:36.944Z,0.90
2023-05-10T17:24:04.143Z,0.95
2023-05-10T17:26:31.429Z,1.20
2023-05-10T17:28:59.068Z,1.35
2023-05-10T17:31:26.350Z,1.10
2023-05-10T17:33:53.577Z,0.98
2023-05-10T17:36:20.728Z,0.98
2023-05-10T17:38:48.009Z,1.20
2023-05-10T17:41:15.456Z,1.10
2023-05-10T17:43:43.908Z,1.40
2023-05-10T17:46:11.306Z,1.30
2023-05-10T17:48:38.469Z,1.40
2023-05-10T17:51:06.479Z,1.70
2023-05-10T17:53:35.241Z,1.35
2023-05-10T17:56:02.441Z,1.10
2023-05-10T17:58:30.274Z,1.70
2023-05-10T18:00:57.642Z,1.40
2023-05-10T18:03:24.931Z,1.80
2023-05-10T18:05:52.372Z,1.55
2023-05-10T18:08:22.852Z,1.30
2023-05-10T18:10:50.254Z,2.10
2023-05-10T18:13:17.570Z,1.80
2023-05-10T18:15:44.759Z,1.98
2023-05-10T18:18:11.919Z,2.05
2023-05-10T18:20:39.188Z,2.25
2023-05-10T18:23:06.405Z,1.83
2023-05-10T18:25:33.602Z,1.85
2023-05-10T18:28:00.769Z,2.30
2023-05-10T18:30:28.207Z,2.30
2023-05-10T18:32:55.732Z,2.50
2023-05-10T18:35:23.168Z,2.42
2023-05-10T18:37:50.572Z,2.88
2023-05-10T18:40:17.973Z,3.03
2023-05-10T18:42:46.631Z,3.90
2023-05-10T18:45:13.986Z,3.20
2023-05-10T18:47:41.298Z,2.47
2023-05-10T18:50:08.810Z,2.65
2023-05-10T18:52:37.153Z,3.00
2023-05-10T18:55:04.668Z,3.10
2023-05-10T18:57:31.981Z,2.95
2023-05-10T18:59:59.111Z,3.70
2023-05-10T19:02:26.751Z,2.83
2023-05-10T19:04:54.044Z,2.95
2023-05-10T19:07:21.380Z,2.47
2023-05-10T19:09:48.642Z,2.50
2023-05-10T19:12:15.860Z,2.65
2023-05-10T19:14:43.160Z,2.55
2023-05-10T19:17:13.105Z,3.20
2023-05-10T19:19:40.489Z,2.53
2023-05-10T19:22:07.815Z,2.47
2023-05-10T19:24:35.561Z,2.47
2023-05-10T19:27:03.241Z,2.70
2023-05-10T19:29:30.602Z,2.55
2023-05-10T19:31:58.630Z,2.83
2023-05-10T19:34:25.925Z,2.95
2023-05-10T19:36:53.108Z,2.20
2023-05-10T19:39:20.325Z,3.05
2023-05-10T19:41:50.061Z,3.42
2023-05-10T19:44:17.999Z,3.28
2023-05-10T19:46:45.385Z,2.60
2023-05-10T19:49:12.616Z,2.78
2023-05-10T19:51:40.107Z,2.20
2023-05-10T19:54:07.264Z,2.80
2023-05-10T19:56:34.549Z,2.47
2023-05-10T19:59:03.390Z,2.50
2023-05-10T20:01:32.654Z,2.30
2023-05-10T20:03:59.903Z,2.13
2023-05-10T20:06:27.462Z,2.38
2023-05-10T20:08:54.759Z,1.98
2023-05-10T20:11:21.924Z,2.30
2023-05-10T20:13:49.060Z,2.60
2023-05-10T20:16:16.810Z,2.70
2023-05-10T20:18:45.033Z,2.53
2023-05-10T20:21:12.221Z,2.28
2023-05-10T20:23:39.495Z,2.60
2023-05-10T20:26:06.749Z,2.20
2023-05-10T20:28:34.022Z,2.50
2023-05-10T20:31:02.061Z,2.15
2023-05-10T20:33:29.281Z,2.15
2023-05-10T20:35:56.405Z,2.50
2023-05-10T20:38:23.528Z,1.90
2023-05-10T20:40:50.798Z,2.03
2023-05-10T20:43:18.904Z,1.95
2023-05-10T20:45:46.104Z,2.08
2023-05-10T20:48:13.514Z,2.20
2023-05-10T20:50:40.743Z,2.50
2023-05-10T20:53:08.015Z,2.92
2023-05-10T20:55:35.284Z,2.50
2023-05-10T20:58:04.690Z,4.20
2023-05-10T21:00:32.204Z,4.20
2023-05-10T21:02:59.399Z,5.35
2023-05-10T21:05:26.715Z,7.93
2023-05-10T21:07:54.279Z,4.20
2023-05-10T21:10:21.944Z,2.95
2023-05-10T21:12:49.280Z,2.25
2023-05-10T21:15:17.625Z,2.50
2023-05-10T21:17:45.803Z,2.50
2023-05-10T21:20:13.333Z,2.20
2023-05-10T21:22:40.567Z,2.40
2023-05-10T21:25:08.186Z,2.28
2023-05-10T21:27:35.738Z,2.13
2023-05-10T21:30:02.896Z,2.13
2023-05-10T21:32:30.046Z,2.42
2023-05-10T21:34:57.294Z,2.55
2023-05-10T21:37:24.428Z,2.53
2023-05-10T21:39:52.837Z,2.20
2023-05-10T21:42:20.201Z,2.60
2023-05-10T21:44:47.351Z,2.88
2023-05-10T21:47:14.556Z,2.20
2023-05-10T21:49:41.724Z,1.92
2023-05-10T21:52:08.866Z,1.70
2023-05-10T21:54:37.344Z,1.52
2023-05-10T21:57:04.594Z,1.90
2023-05-10T21:59:31.786Z,1.40
2023-05-10T22:01:58.965Z,1.75
2023-05-10T22:04:26.130Z,1.60
2023-05-10T22:06:53.392Z,1.80
2023-05-10T22:09:20.809Z,1.65
2023-05-10T22:11:48.631Z,1.60
2023-05-10T22:14:17.074Z,1.50
2023-05-10T22:16:44.538Z,1.42
2023-05-10T22:19:11.739Z,1.52
2023-05-10T22:21:38.993Z,1.30
2023-05-10T22:24:06.209Z,1.60
2023-05-10T22:26:33.388Z,1.55
2023-05-10T22:29:00.594Z,1.48
2023-05-10T22:31:27.951Z,1.50
2023-05-10T22:33:55.118Z,2.15
2023-05-10T22:36:22.276Z,1.30
2023-05-10T22:38:49.398Z,1.65
2023-05-10T22:41:16.837Z,1.70
2023-05-10T22:43:44.913Z,1.60
2023-05-10T22:46:12.253Z,1.60
2023-05-10T22:48:39.571Z,1.70
2023-05-10T22:51:06.791Z,1.50
2023-05-10T22:53:33.967Z,1.63
2023-05-10T22:56:01.275Z,1.55
2023-05-10T22:58:28.599Z,1.50
2023-05-10T23:00:56.210Z,1.67
2023-05-10T23:03:23.412Z,1.23
2023-05-10T23:05:50.546Z,1.50
2023-05-10T23:08:17.882Z,1.27
2023-05-10T23:10:45.100Z,1.58
2023-05-10T23:13:12.226Z,1.70
2023-05-10T23:15:40.234Z,1.40
2023-05-10T23:18:08.506Z,1.65
2023-05-10T23:20:36.096Z,1.45
2023-05-10T23:23:03.233Z,1.50
2023-05-10T23:25:30.398Z,1.48
2023-05-10T23:27:57.628Z,1.58
2023-05-10T23:30:24.801Z,1.50
2023-05-10T23:32:52.097Z,1.50
2023-05-10T23:35:19.285Z,1.50
2023-05-10T23:37:46.432Z,1.50
2023-05-10T23:40:14.323Z,1.60
2023-05-10T23:42:41.567Z,1.70
2023-05-10T23:45:09.034Z,1.60
2023-05-10T23:47:36.403Z,1.60
2023-05-10T23:50:05.337Z,1.65
2023-05-10T23:52:32.647Z,1.83
2023-05-10T23:54:59.768Z,1.70
2023-05-10T23:57:27.013Z,2.03
2023-05-10T23:59:54.178Z,2.28
